sensor_id;sensor_type;location;lat;lon;timestamp;pressure;altitude;pressure_sealevel;temperature;humidity
71964;BME280;59834;52.124;5.422;2023-05-07T00:00:58;101688.47;;;14.35;100.00
71964;BME280;59834;52.124;5.422;2023-05-07T00:03:26;101683.44;;;14.32;100.00
71964;BME280;59834;52.124;5.422;2023-05-07T00:05:53;101695.84;;;14.30;100.00
71964;BME280;59834;52.124;5.422;2023-05-07T00:08:19;101699.63;;;14.26;100.00
71964;BME280;59834;52.124;5.422;2023-05-07T00:10:46;101704.78;;;14.27;100.00
71964;BME280;59834;52.124;5.422;2023-05-07T00:13:14;101701.44;;;14.25;100.00
71964;BME280;59834;52.124;5.422;2023-05-07T00:15:41;101698.13;;;14.22;100.00
71964;BME280;59834;52.124;5.422;2023-05-07T00:18:07;101701.91;;;14.18;100.00
71964;BME280;59834;52.124;5.422;2023-05-07T00:20:34;101699.38;;;14.16;100.00
71964;BME280;59834;52.124;5.422;2023-05-07T00:23:01;101693.28;;;14.15;100.00
71964;BME280;59834;52.124;5.422;2023-05-07T00:25:28;101700.63;;;14.10;100.00
71964;BME280;59834;52.124;5.422;2023-05-07T00:27:54;101705.25;;;14.07;100.00
71964;BME280;59834;52.124;5.422;2023-05-07T00:30:21;101697.47;;;14.05;100.00
71964;BME280;59834;52.124;5.422;2023-05-07T00:32:47;101691.31;;;14.05;100.00
71964;BME280;59834;52.124;5.422;2023-05-07T00:35:15;101685.41;;;14.01;100.00
71964;BME280;59834;52.124;5.422;2023-05-07T00:37:41;101685.59;;;13.98;100.00
71964;BME280;59834;52.124;5.422;2023-05-07T00:40:08;101673.78;;;13.91;100.00
71964;BME280;59834;52.124;5.422;2023-05-07T00:42:35;101679.34;;;13.86;100.00
71964;BME280;59834;52.124;5.422;2023-05-07T00:45:03;101672.50;;;13.84;100.00
71964;BME280;59834;52.124;5.422;2023-05-07T00:47:30;101675.88;;;13.86;100.00
71964;BME280;59834;52.124;5.422;2023-05-07T00:49:57;101669.97;;;13.82;100.00
71964;BME280;59834;52.124;5.422;2023-05-07T00:52:25;101667.34;;;13.82;100.00
71964;BME280;59834;52.124;5.422;2023-05-07T00:54:52;101674.28;;;13.83;100.00
71964;BME280;59834;52.124;5.422;2023-05-07T00:57:19;101675.03;;;13.85;100.00
71964;BME280;59834;52.124;5.422;2023-05-07T00:59:47;101672.31;;;13.87;100.00
71964;BME280;59834;52.124;5.422;2023-05-07T01:02:14;101670.44;;;13.89;100.00
71964;BME280;59834;52.124;5.422;2023-05-07T01:04:40;101674.75;;;13.90;100.00
71964;BME280;59834;52.124;5.422;2023-05-07T01:07:07;101663.25;;;13.91;100.00
71964;BME280;59834;52.124;5.422;2023-05-07T01:09:34;101668.53;;;13.91;100.00
71964;BME280;59834;52.124;5.422;2023-05-07T01:12:03;101670.44;;;13.89;100.00
71964;BME280;59834;52.124;5.422;2023-05-07T01:14:29;101670.63;;;13.86;100.00
71964;BME280;59834;52.124;5.422;2023-05-07T01:16:58;101671.66;;;13.83;100.00
71964;BME280;59834;52.124;5.422;2023-05-07T01:19:25;101664.78;;;13.81;100.00
71964;BME280;59834;52.124;5.422;2023-05-07T01:21:57;101665.75;;;13.80;100.00
71964;BME280;59834;52.124;5.422;2023-05-07T01:24:27;101665.63;;;13.81;100.00
71964;BME280;59834;52.124;5.422;2023-05-07T01:26:53;101667.44;;;13.81;100.00
71964;BME280;59834;52.124;5.422;2023-05-07T01:29:20;101668.50;;;13.78;100.00
71964;BME280;59834;52.124;5.422;2023-05-07T01:31:47;101664.06;;;13.79;100.00
71964;BME280;59834;52.124;5.422;2023-05-07T01:34:14;101671.97;;;13.79;100.00
71964;BME280;59834;52.124;5.422;2023-05-07T01:36:44;101668.50;;;13.78;100.00
71964;BME280;59834;52.124;5.422;2023-05-07T01:39:12;101668.50;;;13.78;100.00
71964;BME280;59834;52.124;5.422;2023-05-07T01:41:39;101664.91;;;13.79;100.00
71964;BME280;59834;52.124;5.422;2023-05-07T01:44:05;101667.34;;;13.82;100.00
71964;BME280;59834;52.124;5.422;2023-05-07T01:46:32;101673.34;;;13.84;100.00
71964;BME280;59834;52.124;5.422;2023-05-07T01:48:59;101669.03;;;13.83;100.00
71964;BME280;59834;52.124;5.422;2023-05-07T01:51:26;101672.69;;;13.81;100.00
71964;BME280;59834;52.124;5.422;2023-05-07T01:53:53;101667.44;;;13.81;100.00
71964;BME280;59834;52.124;5.422;2023-05-07T01:56:20;101669.22;;;13.80;100.00
71964;BME280;59834;52.124;5.422;2023-05-07T01:58:47;101669.13;;;13.82;100.00
71964;BME280;59834;52.124;5.422;2023-05-07T02:01:14;101667.44;;;13.81;100.00
71964;BME280;59834;52.124;5.422;2023-05-07T02:03:41;101668.19;;;13.83;100.00
71964;BME280;59834;52.124;5.422;2023-05-07T02:06:08;101672.59;;;13.82;100.00
71964;BME280;59834;52.124;5.422;2023-05-07T02:08:37;101664.72;;;13.82;100.00
71964;BME280;59834;52.124;5.422;2023-05-07T02:11:04;101671.78;;;13.82;100.00
71964;BME280;59834;52.124;5.422;2023-05-07T02:13:33;101671.78;;;13.82;100.00
71964;BME280;59834;52.124;5.422;2023-05-07T02:16:01;101674.47;;;13.80;100.00
71964;BME280;59834;52.124;5.422;2023-05-07T02:18:28;101674.59;;;13.79;100.00
71964;BME280;59834;52.124;5.422;2023-05-07T02:20:55;101664.06;;;13.79;100.00
71964;BME280;59834;52.124;5.422;2023-05-07T02:23:21;101667.63;;;13.78;100.00
71964;BME280;59834;52.124;5.422;2023-05-07T02:25:48;101667.81;;;13.75;100.00
71964;BME280;59834;52.124;5.422;2023-05-07T02:28:15;101665.19;;;13.75;100.00
71964;BME280;59834;52.124;5.422;2023-05-07T02:30:41;101667.72;;;13.76;100.00
71964;BME280;59834;52.124;5.422;2023-05-07T02:33:08;101671.97;;;13.79;100.00
71964;BME280;59834;52.124;5.422;2023-05-07T02:35:35;101671.00;;;13.80;100.00
71964;BME280;59834;52.124;5.422;2023-05-07T02:38:01;101671.97;;;13.79;100.00
71964;BME280;59834;52.124;5.422;2023-05-07T02:40:27;101669.31;;;13.79;100.00
71964;BME280;59834;52.124;5.422;2023-05-07T02:42:54;101665.00;;;13.78;100.00
71964;BME280;59834;52.124;5.422;2023-05-07T02:45:21;101668.38;;;13.80;100.00
71964;BME280;59834;52.124;5.422;2023-05-07T02:47:47;101663.00;;;13.81;100.00
71964;BME280;59834;52.124;5.422;2023-05-07T02:50:14;101662.16;;;13.81;100.00
71964;BME280;59834;52.124;5.422;2023-05-07T02:52:43;101662.28;;;13.79;100.00
71964;BME280;59834;52.124;5.422;2023-05-07T02:55:09;101658.81;;;13.79;100.00
71964;BME280;59834;52.124;5.422;2023-05-07T02:57:36;101652.97;;;13.74;100.00
71964;BME280;59834;52.124;5.422;2023-05-07T03:00:17;101655.59;;;13.74;100.00
71964;BME280;59834;52.124;5.422;2023-05-07T03:02:45;101660.88;;;13.74;100.00
71964;BME280;59834;52.124;5.422;2023-05-07T03:05:11;101673.28;;;13.72;100.00
71964;BME280;59834;52.124;5.422;2023-05-07T03:07:39;101669.25;;;13.66;100.00
71964;BME280;59834;52.124;5.422;2023-05-07T03:10:07;101662.31;;;13.65;100.00
71964;BME280;59834;52.124;5.422;2023-05-07T03:12:34;101668.41;;;13.65;100.00
71964;BME280;59834;52.124;5.422;2023-05-07T03:15:01;101656.19;;;13.64;100.00
71964;BME280;59834;52.124;5.422;2023-05-07T03:17:27;101659.56;;;13.66;100.00
71964;BME280;59834;52.124;5.422;2023-05-07T03:19:54;101648.22;;;13.66;100.00
71964;BME280;59834;52.124;5.422;2023-05-07T03:22:21;101661.38;;;13.66;100.00
71964;BME280;59834;52.124;5.422;2023-05-07T03:24:47;101659.69;;;13.65;100.00
71964;BME280;59834;52.124;5.422;2023-05-07T03:27:14;101655.47;;;13.62;100.00
71964;BME280;59834;52.124;5.422;2023-05-07T03:29:40;101661.44;;;13.64;100.00
71964;BME280;59834;52.124;5.422;2023-05-07T03:32:07;101658.94;;;13.63;100.00
71964;BME280;59834;52.124;5.422;2023-05-07T03:34:33;101659.97;;;13.60;100.00
71964;BME280;59834;52.124;5.422;2023-05-07T03:37:00;101655.66;;;13.59;100.00
71964;BME280;59834;52.124;5.422;2023-05-07T03:39:26;101661.84;;;13.58;100.00
71964;BME280;59834;52.124;5.422;2023-05-07T03:41:56;101653.22;;;13.56;100.00
71964;BME280;59834;52.124;5.422;2023-05-07T03:44:23;101656.88;;;13.54;100.00
71964;BME280;59834;52.124;5.422;2023-05-07T03:46:49;101662.25;;;13.52;100.00
71964;BME280;59834;52.124;5.422;2023-05-07T03:49:16;101665.78;;;13.51;100.00
71964;BME280;59834;52.124;5.422;2023-05-07T03:51:42;101662.25;;;13.52;100.00
71964;BME280;59834;52.124;5.422;2023-05-07T03:54:12;101658.78;;;13.52;100.00
71964;BME280;59834;52.124;5.422;2023-05-07T03:56:42;101660.53;;;13.51;100.00
71964;BME280;59834;52.124;5.422;2023-05-07T03:59:08;101662.44;;;13.49;100.00
71964;BME280;59834;52.124;5.422;2023-05-07T04:01:35;101669.38;;;13.50;100.00
71964;BME280;59834;52.124;5.422;2023-05-07T04:04:01;101668.34;;;13.53;100.00
71964;BME280;59834;52.124;5.422;2023-05-07T04:06:30;101676.31;;;13.51;100.00
71964;BME280;59834;52.124;5.422;2023-05-07T04:08:56;101669.38;;;13.50;100.00
71964;BME280;59834;52.124;5.422;2023-05-07T04:11:23;101677.38;;;13.49;100.00
71964;BME280;59834;52.124;5.422;2023-05-07T04:13:50;101678.22;;;13.49;100.00
71964;BME280;59834;52.124;5.422;2023-05-07T04:16:16;101683.47;;;13.49;100.00
71964;BME280;59834;52.124;5.422;2023-05-07T04:18:43;101681.56;;;13.51;100.00
71964;BME280;59834;52.124;5.422;2023-05-07T04:21:16;101678.84;;;13.53;100.00
71964;BME280;59834;52.124;5.422;2023-05-07T04:23:44;101681.31;;;13.56;100.00
71964;BME280;59834;52.124;5.422;2023-05-07T04:26:10;101682.97;;;13.57;100.00
71964;BME280;59834;52.124;5.422;2023-05-07T04:28:37;101675.94;;;13.57;100.00
71964;BME280;59834;52.124;5.422;2023-05-07T04:31:04;101678.66;;;13.56;100.00
71964;BME280;59834;52.124;5.422;2023-05-07T04:33:32;101678.56;;;13.57;100.00
71964;BME280;59834;52.124;5.422;2023-05-07T04:36:03;101682.91;;;13.58;100.00
71964;BME280;59834;52.124;5.422;2023-05-07T04:38:31;101687.28;;;13.58;100.00
71964;BME280;59834;52.124;5.422;2023-05-07T04:41:03;101687.22;;;13.59;100.00
71964;BME280;59834;52.124;5.422;2023-05-07T04:43:30;101681.00;;;13.60;100.00
71964;BME280;59834;52.124;5.422;2023-05-07T04:45:56;101680.81;;;13.63;100.00
71964;BME280;59834;52.124;5.422;2023-05-07T04:48:23;101685.13;;;13.64;100.00
71964;BME280;59834;52.124;5.422;2023-05-07T04:50:50;101691.25;;;13.65;100.00
71964;BME280;59834;52.124;5.422;2023-05-07T04:53:18;101691.44;;;13.62;100.00
71964;BME280;59834;52.124;5.422;2023-05-07T04:55:44;101692.28;;;13.62;100.00
71964;BME280;59834;52.124;5.422;2023-05-07T04:58:11;101697.63;;;13.61;100.00
71964;BME280;59834;52.124;5.422;2023-05-07T05:00:42;101695.00;;;13.61;100.00
71964;BME280;59834;52.124;5.422;2023-05-07T05:03:13;101699.34;;;13.62;100.00
71964;BME280;59834;52.124;5.422;2023-05-07T05:05:40;101700.25;;;13.61;100.00
71964;BME280;59834;52.124;5.422;2023-05-07T05:08:06;101693.88;;;13.65;100.00
71964;BME280;59834;52.124;5.422;2023-05-07T05:10:33;101703.53;;;13.64;100.00
71964;BME280;59834;52.124;5.422;2023-05-07T05:13:00;101702.50;;;13.67;100.00
71964;BME280;59834;52.124;5.422;2023-05-07T05:15:26;101703.34;;;13.67;100.00
71964;BME280;59834;52.124;5.422;2023-05-07T05:17:53;101700.53;;;13.71;100.00
71964;BME280;59834;52.124;5.422;2023-05-07T05:20:19;101701.47;;;13.70;100.00
71964;BME280;59834;52.124;5.422;2023-05-07T05:22:46;101706.75;;;13.70;100.00
71964;BME280;59834;52.124;5.422;2023-05-07T05:25:12;101702.31;;;13.70;100.00
71964;BME280;59834;52.124;5.422;2023-05-07T05:27:39;101706.63;;;13.71;100.00
71964;BME280;59834;52.124;5.422;2023-05-07T05:30:06;101702.31;;;13.70;100.00
71964;BME280;59834;52.124;5.422;2023-05-07T05:32:33;101714.44;;;13.73;100.00
71964;BME280;59834;52.124;5.422;2023-05-07T05:35:00;101717.06;;;13.73;100.00
71964;BME280;59834;52.124;5.422;2023-05-07T05:37:26;101713.50;;;13.74;100.00
71964;BME280;59834;52.124;5.422;2023-05-07T05:39:53;101714.31;;;13.74;100.00
71964;BME280;59834;52.124;5.422;2023-05-07T05:42:21;101721.19;;;13.77;100.00
71964;BME280;59834;52.124;5.422;2023-05-07T05:44:47;101721.84;;;13.80;100.00
71964;BME280;59834;52.124;5.422;2023-05-07T05:47:14;101732.28;;;13.82;100.00
71964;BME280;59834;52.124;5.422;2023-05-07T05:49:41;101738.09;;;13.87;100.00
71964;BME280;59834;52.124;5.422;2023-05-07T05:52:11;101731.69;;;13.91;100.00
71964;BME280;59834;52.124;5.422;2023-05-07T05:54:38;101738.47;;;13.95;100.00
71964;BME280;59834;52.124;5.422;2023-05-07T05:57:06;101744.06;;;14.03;100.00
71964;BME280;59834;52.124;5.422;2023-05-07T05:59:34;101742.84;;;14.09;100.00
71964;BME280;59834;52.124;5.422;2023-05-07T06:02:08;101751.59;;;14.09;100.00
71964;BME280;59834;52.124;5.422;2023-05-07T06:04:35;101751.59;;;14.09;100.00
71964;BME280;59834;52.124;5.422;2023-05-07T06:07:03;101746.53;;;14.06;100.00
71964;BME280;59834;52.124;5.422;2023-05-07T06:09:30;101753.47;;;14.07;100.00
71964;BME280;59834;52.124;5.422;2023-05-07T06:11:56;101752.53;;;14.08;100.00
71964;BME280;59834;52.124;5.422;2023-05-07T06:14:26;101751.78;;;14.06;100.00
71964;BME280;59834;52.124;5.422;2023-05-07T06:16:52;101752.63;;;14.07;100.00
71964;BME280;59834;52.124;5.422;2023-05-07T06:19:19;101756.09;;;14.07;100.00
71964;BME280;59834;52.124;5.422;2023-05-07T06:21:50;101752.63;;;14.07;100.00
71964;BME280;59834;52.124;5.422;2023-05-07T06:24:17;101758.53;;;14.10;100.00
71964;BME280;59834;52.124;5.422;2023-05-07T06:26:51;101749.69;;;14.11;100.00
71964;BME280;59834;52.124;5.422;2023-05-07T06:29:20;101751.22;;;14.15;100.00
71964;BME280;59834;52.124;5.422;2023-05-07T06:31:46;101757.00;;;14.21;100.00
71964;BME280;59834;52.124;5.422;2023-05-07T06:34:13;101756.06;;;14.22;100.00
71964;BME280;59834;52.124;5.422;2023-05-07T06:36:43;101750.50;;;14.26;100.00
71964;BME280;59834;52.124;5.422;2023-05-07T06:39:09;101751.03;;;14.31;100.00
71964;BME280;59834;52.124;5.422;2023-05-07T06:41:36;101751.78;;;14.33;100.00
71964;BME280;59834;52.124;5.422;2023-05-07T06:44:03;101762.53;;;14.30;100.00
71964;BME280;59834;52.124;5.422;2023-05-07T06:46:30;101767.03;;;14.28;100.00
71964;BME280;59834;52.124;5.422;2023-05-07T06:48:58;101752.31;;;14.26;100.00
71964;BME280;59834;52.124;5.422;2023-05-07T06:51:24;101762.72;;;14.27;100.00
71964;BME280;59834;52.124;5.422;2023-05-07T06:53:51;101760.09;;;14.27;100.00
71964;BME280;59834;52.124;5.422;2023-05-07T06:56:18;101755.47;;;14.31;100.00
71964;BME280;59834;52.124;5.422;2023-05-07T06:58:47;101755.91;;;14.37;100.00
71964;BME280;59834;52.124;5.422;2023-05-07T07:01:17;101757.13;;;14.46;100.00
71964;BME280;59834;52.124;5.422;2023-05-07T07:03:46;101759.41;;;14.52;100.00
71964;BME280;59834;52.124;5.422;2023-05-07T07:06:13;101759.63;;;14.62;100.00
71964;BME280;59834;52.124;5.422;2023-05-07T07:08:53;101753.34;;;14.77;100.00
71964;BME280;59834;52.124;5.422;2023-05-07T07:11:34;101755.03;;;14.91;100.00
71964;BME280;59834;52.124;5.422;2023-05-07T07:14:13;101756.22;;;15.00;100.00
71964;BME280;59834;52.124;5.422;2023-05-07T07:16:53;101762.47;;;15.24;100.00
71964;BME280;59834;52.124;5.422;2023-05-07T07:19:24;101759.28;;;15.45;100.00
71964;BME280;59834;52.124;5.422;2023-05-07T07:21:56;101755.28;;;15.52;100.00
71964;BME280;59834;52.124;5.422;2023-05-07T07:24:27;101755.81;;;15.57;100.00
71964;BME280;59834;52.124;5.422;2023-05-07T07:26:54;101761.19;;;15.68;99.37
71964;BME280;59834;52.124;5.422;2023-05-07T07:29:21;101751.59;;;15.80;100.00
71964;BME280;59834;52.124;5.422;2023-05-07T07:31:53;101752.09;;;15.85;97.73
71964;BME280;59834;52.124;5.422;2023-05-07T07:38:06;101767.50;;;15.91;96.81
71964;BME280;59834;52.124;5.422;2023-05-07T07:40:55;101764.91;;;16.02;97.42
71964;BME280;59834;52.124;5.422;2023-05-07T07:43:31;101758.53;;;16.18;96.33
71964;BME280;59834;52.124;5.422;2023-05-07T07:45:58;101764.66;;;16.18;95.60
71964;BME280;59834;52.124;5.422;2023-05-07T07:48:26;101772.72;;;16.17;95.17
71964;BME280;59834;52.124;5.422;2023-05-07T07:50:52;101774.97;;;16.34;95.01
71964;BME280;59834;52.124;5.422;2023-05-07T07:53:19;101770.97;;;16.53;93.88
71964;BME280;59834;52.124;5.422;2023-05-07T07:55:46;101766.41;;;16.55;93.68
71964;BME280;59834;52.124;5.422;2023-05-07T07:58:15;101775.00;;;16.69;93.53
71964;BME280;59834;52.124;5.422;2023-05-07T08:00:42;101773.78;;;16.86;93.68
71964;BME280;59834;52.124;5.422;2023-05-07T08:03:10;101772.94;;;16.86;93.04
71964;BME280;59834;52.124;5.422;2023-05-07T08:05:40;101785.16;;;16.76;92.88
71964;BME280;59834;52.124;5.422;2023-05-07T08:08:06;101784.84;;;16.80;92.11
71964;BME280;59834;52.124;5.422;2023-05-07T08:10:33;101776.56;;;16.72;91.86
71964;BME280;59834;52.124;5.422;2023-05-07T08:13:02;101779.06;;;16.62;92.58
71964;BME280;59834;52.124;5.422;2023-05-07T08:15:30;101787.81;;;16.63;93.37
71964;BME280;59834;52.124;5.422;2023-05-07T08:17:58;101784.56;;;16.59;93.27
71964;BME280;59834;52.124;5.422;2023-05-07T08:20:28;101790.66;;;16.48;92.31
71964;BME280;59834;52.124;5.422;2023-05-07T08:22:55;101791.22;;;16.41;93.39
71964;BME280;59834;52.124;5.422;2023-05-07T08:25:29;101792.28;;;16.38;94.79
71964;BME280;59834;52.124;5.422;2023-05-07T08:28:01;101791.88;;;16.32;94.93
71964;BME280;59834;52.124;5.422;2023-05-07T08:30:54;101783.78;;;16.22;96.03
71964;BME280;59834;52.124;5.422;2023-05-07T08:33:35;101777.47;;;16.12;96.83
71964;BME280;59834;52.124;5.422;2023-05-07T08:36:04;101783.59;;;16.12;97.65
71964;BME280;59834;52.124;5.422;2023-05-07T08:38:32;101779.69;;;16.18;97.79
71964;BME280;59834;52.124;5.422;2023-05-07T08:40:59;101784.75;;;16.21;97.65
71964;BME280;59834;52.124;5.422;2023-05-07T08:43:34;101785.22;;;16.26;97.90
71964;BME280;59834;52.124;5.422;2023-05-07T08:46:09;101788.19;;;16.34;98.07
71964;BME280;59834;52.124;5.422;2023-05-07T08:48:51;101787.22;;;16.35;97.32
71964;BME280;59834;52.124;5.422;2023-05-07T08:51:24;101787.22;;;16.35;97.30
71964;BME280;59834;52.124;5.422;2023-05-07T08:53:54;101788.06;;;16.36;97.76
71964;BME280;59834;52.124;5.422;2023-05-07T08:56:29;101790.16;;;16.43;97.84
71964;BME280;59834;52.124;5.422;2023-05-07T08:59:19;101793.19;;;16.50;98.27
71964;BME280;59834;52.124;5.422;2023-05-07T09:01:56;101791.78;;;16.57;97.76
71964;BME280;59834;52.124;5.422;2023-05-07T09:08:33;101789.97;;;16.58;98.66
71964;BME280;59834;52.124;5.422;2023-05-07T09:11:46;101783.34;;;16.52;98.10
71964;BME280;59834;52.124;5.422;2023-05-07T09:14:33;101780.06;;;16.48;98.54
71964;BME280;59834;52.124;5.422;2023-05-07T09:17:08;101782.06;;;16.58;98.79
71964;BME280;59834;52.124;5.422;2023-05-07T09:19:36;101777.25;;;16.63;99.24
71964;BME280;59834;52.124;5.422;2023-05-07T09:22:04;101786.16;;;16.62;96.90
71964;BME280;59834;52.124;5.422;2023-05-07T09:24:31;101786.50;;;16.57;96.85
71964;BME280;59834;52.124;5.422;2023-05-07T09:27:01;101787.50;;;16.67;97.48
71964;BME280;59834;52.124;5.422;2023-05-07T09:29:35;101790.47;;;16.63;95.75
71964;BME280;59834;52.124;5.422;2023-05-07T09:32:08;101786.66;;;16.67;96.51
71964;BME280;59834;52.124;5.422;2023-05-07T09:34:35;101788.00;;;16.72;95.55
71964;BME280;59834;52.124;5.422;2023-05-07T09:37:04;101781.88;;;16.72;95.81
71964;BME280;59834;52.124;5.422;2023-05-07T09:39:52;101786.53;;;16.68;94.68
71964;BME280;59834;52.124;5.422;2023-05-07T09:42:24;101790.47;;;16.63;95.10
71964;BME280;59834;52.124;5.422;2023-05-07T09:45:01;101794.31;;;16.59;94.46
71964;BME280;59834;52.124;5.422;2023-05-07T09:47:32;101792.41;;;16.61;94.64
71964;BME280;59834;52.124;5.422;2023-05-07T09:50:10;101792.66;;;16.69;94.38
71964;BME280;59834;52.124;5.422;2023-05-07T09:52:40;101793.72;;;16.66;94.19
71964;BME280;59834;52.124;5.422;2023-05-07T09:55:11;101797.69;;;16.61;94.41
71964;BME280;59834;52.124;5.422;2023-05-07T09:57:43;101803.16;;;16.70;94.14
71964;BME280;59834;52.124;5.422;2023-05-07T10:00:12;101809.97;;;16.73;94.81
71964;BME280;59834;52.124;5.422;2023-05-07T10:02:52;101802.84;;;16.86;94.92
71964;BME280;59834;52.124;5.422;2023-05-07T10:05:34;101800.28;;;16.98;93.30
71964;BME280;59834;52.124;5.422;2023-05-07T10:08:09;101805.72;;;17.07;92.91
71964;BME280;59834;52.124;5.422;2023-05-07T10:10:36;101801.72;;;17.13;92.70
71964;BME280;59834;52.124;5.422;2023-05-07T10:13:14;101810.66;;;17.23;92.16
71964;BME280;59834;52.124;5.422;2023-05-07T10:15:41;101805.41;;;17.34;92.53
71964;BME280;59834;52.124;5.422;2023-05-07T10:18:11;101806.72;;;17.40;92.07
71964;BME280;59834;52.124;5.422;2023-05-07T10:20:51;101809.03;;;17.44;90.03
71964;BME280;59834;52.124;5.422;2023-05-07T10:23:32;101806.84;;;17.50;90.82
71964;BME280;59834;52.124;5.422;2023-05-07T10:26:03;101810.97;;;17.65;90.24
71964;BME280;59834;52.124;5.422;2023-05-07T10:28:53;101807.47;;;17.76;89.19
71964;BME280;59834;52.124;5.422;2023-05-07T10:35:05;101799.78;;;18.06;88.18
71964;BME280;59834;52.124;5.422;2023-05-07T10:37:47;101805.16;;;18.27;86.80
71964;BME280;59834;52.124;5.422;2023-05-07T10:40:17;101805.88;;;18.29;87.27
71964;BME280;59834;52.124;5.422;2023-05-07T10:42:57;101798.38;;;18.46;84.83
71964;BME280;59834;52.124;5.422;2023-05-07T10:45:28;101795.66;;;18.68;84.65
71964;BME280;59834;52.124;5.422;2023-05-07T10:49:06;101798.19;;;19.02;84.02
71964;BME280;59834;52.124;5.422;2023-05-07T10:51:24;101799.38;;;19.40;82.58
71964;BME280;59834;52.124;5.422;2023-05-07T10:56:44;101801.75;;;19.64;79.68
71964;BME280;59834;52.124;5.422;2023-05-07T11:01:54;101800.38;;;19.39;79.37
71964;BME280;59834;52.124;5.422;2023-05-07T11:04:21;101793.50;;;19.36;80.39
71964;BME280;59834;52.124;5.422;2023-05-07T11:09:57;101795.63;;;19.42;79.23
71964;BME280;59834;52.124;5.422;2023-05-07T11:15:10;101796.47;;;19.43;79.52
71964;BME280;59834;52.124;5.422;2023-05-07T11:18:02;101803.78;;;19.29;79.66
71964;BME280;59834;52.124;5.422;2023-05-07T11:20:57;101809.22;;;19.28;79.69
71964;BME280;59834;52.124;5.422;2023-05-07T11:26:01;101804.22;;;19.35;79.41
71964;BME280;59834;52.124;5.422;2023-05-07T11:28:29;101808.81;;;19.53;78.82
71964;BME280;59834;52.124;5.422;2023-05-07T11:30:56;101817.81;;;19.62;78.88
71964;BME280;59834;52.124;5.422;2023-05-07T11:33:23;101808.75;;;19.65;78.18
71964;BME280;59834;52.124;5.422;2023-05-07T11:35:53;101809.53;;;19.55;78.88
71964;BME280;59834;52.124;5.422;2023-05-07T11:38:24;101802.22;;;19.69;78.72
71964;BME280;59834;52.124;5.422;2023-05-07T11:40:56;101808.06;;;20.03;79.44
71964;BME280;59834;52.124;5.422;2023-05-07T11:43:23;101804.47;;;20.23;76.43
71964;BME280;59834;52.124;5.422;2023-05-07T11:45:50;101813.00;;;20.17;77.11
71964;BME280;59834;52.124;5.422;2023-05-07T11:48:43;101807.91;;;20.05;77.17
71964;BME280;59834;52.124;5.422;2023-05-07T11:51:19;101802.25;;;20.19;77.57
71964;BME280;59834;52.124;5.422;2023-05-07T11:53:50;101810.50;;;20.25;77.18
71964;BME280;59834;52.124;5.422;2023-05-07T11:56:18;101804.63;;;20.32;76.43
71964;BME280;59834;52.124;5.422;2023-05-07T11:58:48;101814.25;;;20.13;76.12
71964;BME280;59834;52.124;5.422;2023-05-07T12:01:16;101809.91;;;20.22;77.14
71964;BME280;59834;52.124;5.422;2023-05-07T12:03:43;101808.81;;;20.24;76.47
71964;BME280;59834;52.124;5.422;2023-05-07T12:06:14;101806.44;;;20.21;76.03
71964;BME280;59834;52.124;5.422;2023-05-07T12:08:43;101806.88;;;20.27;75.41
71964;BME280;59834;52.124;5.422;2023-05-07T12:11:22;101811.94;;;20.49;74.66
71964;BME280;59834;52.124;5.422;2023-05-07T12:13:49;101803.16;;;20.58;74.83
71964;BME280;59834;52.124;5.422;2023-05-07T12:16:17;101799.03;;;20.35;75.43
71964;BME280;59834;52.124;5.422;2023-05-07T12:18:44;101804.00;;;20.78;74.77
71964;BME280;59834;52.124;5.422;2023-05-07T12:21:11;101811.41;;;21.13;72.44
71964;BME280;59834;52.124;5.422;2023-05-07T12:23:40;101806.75;;;21.15;71.91
71964;BME280;59834;52.124;5.422;2023-05-07T12:26:10;101803.81;;;21.18;71.20
71964;BME280;59834;52.124;5.422;2023-05-07T12:28:38;101806.19;;;21.22;71.61
71964;BME280;59834;52.124;5.422;2023-05-07T12:31:05;101801.47;;;20.96;72.65
71964;BME280;59834;52.124;5.422;2023-05-07T12:33:32;101802.59;;;21.03;73.87
71964;BME280;59834;52.124;5.422;2023-05-07T12:36:04;101798.47;;;21.38;72.92
71964;BME280;59834;52.124;5.422;2023-05-07T12:38:35;101803.38;;;21.33;71.08
71964;BME280;59834;52.124;5.422;2023-05-07T12:41:03;101801.56;;;21.24;70.68
71964;BME280;59834;52.124;5.422;2023-05-07T12:43:30;101796.00;;;21.07;70.55
71964;BME280;59834;52.124;5.422;2023-05-07T12:46:00;101792.22;;;21.00;70.86
71964;BME280;59834;52.124;5.422;2023-05-07T12:48:27;101797.66;;;21.08;70.85
71964;BME280;59834;52.124;5.422;2023-05-07T12:50:54;101800.84;;;21.22;68.54
71964;BME280;59834;52.124;5.422;2023-05-07T12:53:23;101802.94;;;21.28;67.61
71964;BME280;59834;52.124;5.422;2023-05-07T12:55:55;101803.50;;;21.31;68.56
71964;BME280;59834;52.124;5.422;2023-05-07T12:58:31;101809.13;;;21.09;67.29
71964;BME280;59834;52.124;5.422;2023-05-07T13:01:10;101809.88;;;21.01;67.08
71964;BME280;59834;52.124;5.422;2023-05-07T13:03:50;101810.69;;;21.11;68.12
71964;BME280;59834;52.124;5.422;2023-05-07T13:06:17;101815.28;;;21.29;67.20
71964;BME280;59834;52.124;5.422;2023-05-07T13:08:44;101810.66;;;21.31;67.20
71964;BME280;59834;52.124;5.422;2023-05-07T13:11:11;101811.09;;;21.26;67.63
71964;BME280;59834;52.124;5.422;2023-05-07T13:13:41;101803.47;;;21.51;67.74
71964;BME280;59834;52.124;5.422;2023-05-07T13:16:09;101807.91;;;21.70;66.42
71964;BME280;59834;52.124;5.422;2023-05-07T13:18:38;101810.34;;;21.91;66.73
71964;BME280;59834;52.124;5.422;2023-05-07T13:21:07;101806.00;;;22.17;66.39
71964;BME280;59834;52.124;5.422;2023-05-07T13:23:35;101810.00;;;22.03;64.84